Dona Emma, Brazil
Current Conditions -  °F | °C
As of 3:00 PM on Friday 31 Oct 2014 (Local Time) from SBNF Reporting Station
Scattered Clouds Scattered Clouds  
Wind Chill: 77°   Ceiling: Unl
Heat Index: 79°   Visibility: 6mi
Dew Point: 68°   Wind: 9mph
Humidity: 74%   Direction: 90°E
Pressure: 29.85"   Gusts: NA
Location:  26.98°S, 49.73°W
Report Text: SBNF 311700Z 09008KT 9999 SCT025 25/20 Q1011
Loading
Personal Weather Stations






























Interactive Weather Map
Tropical Storm Tracking
New forecast layout! Learn more

10-Day Weather Forecast

Advertisements
Track Severe Weather on mobile